Time;durP1;ratioP1;P1;durP2;ratioP2;P2;SDS_P1;SDS_P2;PMS_P1;PMS_P2;Temp;Humidity;BMP_temperature;BMP_pressure;BME280_temperature;BME280_humidity;BME280_pressure;Samples;Min_cycle;Max_cycle;Signal;HPM_P1;HPM_P2
2023/05/20 00:01:06;;;;;;;;;;;11.50;99.90;;;;;;5102858;27;20292;-85
2023/05/20 00:03:31;;;;;;;;;;;11.60;99.90;;;;;;5085888;27;20017;-84
2023/05/20 00:05:57;;;;;;;;;;;11.60;99.90;;;;;;5085853;27;19934;-85
2023/05/20 00:08:22;;;;;;;;;;;11.50;99.90;;;;;;5084692;27;19928;-84
2023/05/20 00:10:48;;;;;;;;;;;11.60;99.90;;;;;;5084387;27;19927;-84
2023/05/20 00:13:13;;;;;;;;;;;11.50;99.90;;;;;;5105520;27;19996;-85
2023/05/20 00:15:39;;;;;;;;;;;11.50;99.90;;;;;;5106893;27;19931;-84
2023/05/20 00:18:05;;;;;;;;;;;11.50;99.90;;;;;;5103340;27;20300;-84
2023/05/20 00:20:31;;;;;;;;;;;11.50;99.90;;;;;;5107406;27;19932;-84
2023/05/20 00:22:56;;;;;;;;;;;11.60;99.90;;;;;;5101900;27;19932;-84
2023/05/20 00:25:22;;;;;;;;;;;11.60;99.90;;;;;;5105349;27;19927;-84
2023/05/20 00:27:47;;;;;;;;;;;11.70;99.90;;;;;;5099810;27;20428;-84
2023/05/20 00:30:13;;;;;;;;;;;11.70;99.90;;;;;;5087173;27;20404;-85
2023/05/20 00:32:39;;;;;;;;;;;11.70;99.90;;;;;;5086657;27;19990;-84
2023/05/20 00:35:05;;;;;;;;;;;11.70;99.90;;;;;;5103515;27;19931;-85
2023/05/20 00:37:30;;;;;;;;;;;11.70;99.90;;;;;;5097349;27;19932;-85
2023/05/20 00:39:56;;;;;;;;;;;11.80;99.90;;;;;;5107109;27;19970;-84
2023/05/20 00:42:25;;;;;;;;;;;11.80;99.90;;;;;;5083382;27;19950;-85
2023/05/20 00:44:50;;;;;;;;;;;11.80;99.90;;;;;;5103464;27;19972;-84
2023/05/20 00:47:20;;;;;;;;;;;11.80;99.90;;;;;;5101730;27;20451;-84
2023/05/20 00:49:46;;;;;;;;;;;11.90;99.90;;;;;;5101365;27;19934;-85
2023/05/20 00:52:12;;;;;;;;;;;11.90;99.90;;;;;;5103722;27;19928;-84
2023/05/20 00:54:39;;;;;;;;;;;11.90;99.90;;;;;;5103006;27;19931;-84
2023/05/20 00:57:05;;;;;;;;;;;11.80;99.90;;;;;;5105707;27;20337;-84
2023/05/20 00:59:32;;;;;;;;;;;11.80;99.90;;;;;;5101997;27;19927;-84
2023/05/20 01:01:57;;;;;;;;;;;11.80;99.90;;;;;;5100201;27;19973;-84
2023/05/20 01:04:23;;;;;;;;;;;11.90;99.90;;;;;;5103598;27;19927;-83
2023/05/20 01:06:49;;;;;;;;;;;11.90;99.90;;;;;;5101995;27;19937;-83
2023/05/20 01:09:15;;;;;;;;;;;12.00;99.90;;;;;;5106121;27;19934;-85
2023/05/20 01:11:47;;;;;;;;;;;12.00;99.90;;;;;;5101780;27;20553;-85
2023/05/20 01:14:15;;;;;;;;;;;12.00;99.90;;;;;;5105264;27;20018;-85
2023/05/20 01:16:42;;;;;;;;;;;12.10;99.90;;;;;;5101496;27;19977;-85
2023/05/20 01:19:20;;;;;;;;;;;12.10;99.90;;;;;;5088916;27;20437;-84
2023/05/20 01:21:46;;;;;;;;;;;12.10;99.90;;;;;;5101997;27;19923;-85
2023/05/20 01:24:12;;;;;;;;;;;12.20;99.90;;;;;;5104034;27;19985;-84
2023/05/20 01:26:38;;;;;;;;;;;12.20;99.90;;;;;;5098846;27;19935;-84
2023/05/20 01:29:04;;;;;;;;;;;12.20;99.90;;;;;;5103084;27;19933;-84
2023/05/20 01:31:31;;;;;;;;;;;12.20;99.90;;;;;;5099143;27;20010;-84
2023/05/20 01:33:57;;;;;;;;;;;12.20;99.90;;;;;;5101928;27;19931;-85
2023/05/20 01:36:25;;;;;;;;;;;12.20;99.90;;;;;;5105527;27;19993;-85
2023/05/20 01:38:51;;;;;;;;;;;12.20;99.90;;;;;;5101764;27;20394;-85
2023/05/20 01:41:17;;;;;;;;;;;12.20;99.90;;;;;;5084815;27;19941;-85
2023/05/20 01:43:43;;;;;;;;;;;12.30;99.90;;;;;;5104883;27;20006;-85
2023/05/20 01:46:09;;;;;;;;;;;12.20;99.90;;;;;;5098133;27;19934;-85
2023/05/20 01:48:35;;;;;;;;;;;12.20;99.90;;;;;;5101362;27;19955;-85
2023/05/20 01:51:00;;;;;;;;;;;12.20;99.90;;;;;;5101537;27;19955;-85
2023/05/20 01:53:26;;;;;;;;;;;12.30;99.90;;;;;;5101884;27;19923;-86
2023/05/20 01:55:51;;;;;;;;;;;12.30;99.90;;;;;;5100733;27;19969;-85
2023/05/20 01:58:17;;;;;;;;;;;12.30;99.90;;;;;;5103417;27;20010;-84
2023/05/20 02:00:42;;;;;;;;;;;12.20;99.90;;;;;;5085810;27;19930;-85
2023/05/20 02:03:08;;;;;;;;;;;12.20;99.90;;;;;;5104899;27;19927;-84
2023/05/20 02:05:33;;;;;;;;;;;12.20;99.90;;;;;;5105629;27;19970;-85
2023/05/20 02:07:59;;;;;;;;;;;12.20;99.90;;;;;;5104405;27;19967;-85
2023/05/20 02:10:24;;;;;;;;;;;12.20;99.90;;;;;;5100982;27;19931;-85
2023/05/20 02:12:50;;;;;;;;;;;12.20;99.90;;;;;;5107028;27;20344;-85
2023/05/20 02:15:16;;;;;;;;;;;12.20;99.90;;;;;;5101375;27;19946;-85
2023/05/20 02:17:42;;;;;;;;;;;12.20;99.90;;;;;;5101924;27;19932;-84
2023/05/20 02:20:08;;;;;;;;;;;12.20;99.90;;;;;;5104071;27;19931;-85
2023/05/20 02:22:33;;;;;;;;;;;12.20;99.90;;;;;;5088049;27;19938;-84
2023/05/20 02:24:59;;;;;;;;;;;12.10;99.90;;;;;;5104774;27;19959;-84
2023/05/20 02:27:24;;;;;;;;;;;12.20;99.90;;;;;;5086587;27;19924;-84
2023/05/20 02:29:50;;;;;;;;;;;12.20;99.90;;;;;;5102765;28;19931;-84
2023/05/20 02:32:16;;;;;;;;;;;12.20;99.90;;;;;;5105600;27;20010;-85
2023/05/20 02:34:42;;;;;;;;;;;12.20;99.90;;;;;;5100630;28;19938;-84
2023/05/20 02:37:07;;;;;;;;;;;12.20;99.90;;;;;;5102568;28;19930;-85
2023/05/20 02:39:33;;;;;;;;;;;12.20;99.90;;;;;;5102675;28;19939;-84
2023/05/20 02:41:58;;;;;;;;;;;12.20;99.90;;;;;;5103871;28;20414;-84
2023/05/20 02:44:24;;;;;;;;;;;12.10;99.90;;;;;;5104229;28;19927;-84
2023/05/20 02:46:50;;;;;;;;;;;12.10;99.90;;;;;;5105241;27;19931;-84
2023/05/20 02:49:16;;;;;;;;;;;12.10;99.90;;;;;;5102826;27;20444;-84
2023/05/20 02:51:41;;;;;;;;;;;12.10;99.90;;;;;;5099410;27;19928;-85
2023/05/20 02:54:07;;;;;;;;;;;12.10;99.90;;;;;;5103105;28;19924;-84
2023/05/20 02:56:33;;;;;;;;;;;12.10;99.90;;;;;;5099449;28;19924;-84
2023/05/20 02:58:59;;;;;;;;;;;12.00;99.90;;;;;;5100216;27;20023;-85
2023/05/20 03:01:28;;;;;;;;;;;12.00;99.90;;;;;;5121062;28;19943;-84
2023/05/20 03:03:54;;;;;;;;;;;12.00;99.90;;;;;;5101305;27;19923;-85
2023/05/20 03:06:19;;;;;;;;;;;12.00;99.90;;;;;;5103213;27;19980;-84
2023/05/20 03:08:45;;;;;;;;;;;11.90;99.90;;;;;;5102527;28;20011;-85
2023/05/20 03:11:10;;;;;;;;;;;11.90;99.90;;;;;;5098877;28;19950;-84
2023/05/20 03:13:36;;;;;;;;;;;11.90;99.90;;;;;;5103109;27;19934;-85
2023/05/20 03:16:01;;;;;;;;;;;11.80;99.90;;;;;;5105944;27;20288;-84
2023/05/20 03:18:28;;;;;;;;;;;11.70;99.90;;;;;;5107424;27;19927;-85
2023/05/20 03:20:54;;;;;;;;;;;11.50;99.90;;;;;;5109143;27;19927;-84
2023/05/20 03:23:20;;;;;;;;;;;11.50;99.90;;;;;;5107496;27;19923;-84
2023/05/20 03:25:46;;;;;;;;;;;11.50;99.90;;;;;;5102657;27;19927;-85
2023/05/20 03:28:11;;;;;;;;;;;11.50;99.90;;;;;;5105533;27;19977;-84
2023/05/20 03:30:37;;;;;;;;;;;11.30;99.90;;;;;;5107181;27;19964;-83
2023/05/20 03:33:04;;;;;;;;;;;11.30;99.90;;;;;;5091652;27;20414;-83
2023/05/20 03:35:30;;;;;;;;;;;11.20;99.90;;;;;;5103870;27;20778;-84
2023/05/20 03:37:55;;;;;;;;;;;11.10;99.90;;;;;;5110354;27;19927;-81
2023/05/20 03:40:21;;;;;;;;;;;11.10;99.90;;;;;;5105626;27;19931;-88
2023/05/20 03:42:46;;;;;;;;;;;11.10;99.90;;;;;;5106467;27;19976;-84
2023/05/20 03:45:12;;;;;;;;;;;11.10;99.90;;;;;;5108818;27;19949;-85
2023/05/20 03:47:37;;;;;;;;;;;11.10;99.90;;;;;;5104558;27;20344;-84
2023/05/20 03:50:03;;;;;;;;;;;11.10;99.90;;;;;;5108433;27;19923;-84
2023/05/20 03:52:29;;;;;;;;;;;11.00;99.90;;;;;;5108173;27;19933;-85
2023/05/20 03:54:55;;;;;;;;;;;11.00;99.90;;;;;;5108146;27;19927;-84
2023/05/20 03:57:21;;;;;;;;;;;11.00;99.90;;;;;;5090600;27;19965;-84
2023/05/20 03:59:47;;;;;;;;;;;11.00;99.90;;;;;;5105150;27;19982;-84
2023/05/20 04:02:12;;;;;;;;;;;11.10;99.90;;;;;;5088406;27;20448;-85
2023/05/20 04:04:38;;;;;;;;;;;11.00;99.90;;;;;;5105986;27;19939;-84
2023/05/20 04:07:03;;;;;;;;;;;11.00;99.90;;;;;;5105000;27;19930;-84
2023/05/20 04:09:29;;;;;;;;;;;11.00;99.90;;;;;;5107750;27;19981;-84
2023/05/20 04:11:55;;;;;;;;;;;10.90;99.90;;;;;;5105805;27;19951;-83
2023/05/20 04:14:21;;;;;;;;;;;10.90;99.90;;;;;;5108537;27;19927;-84
2023/05/20 04:16:47;;;;;;;;;;;10.90;99.90;;;;;;5104356;27;19935;-84
2023/05/20 04:19:12;;;;;;;;;;;11.00;99.90;;;;;;5105696;27;19932;-84
2023/05/20 04:21:38;;;;;;;;;;;11.00;99.90;;;;;;5107280;27;20342;-84
2023/05/20 04:24:03;;;;;;;;;;;11.00;99.90;;;;;;5108213;27;20345;-84
2023/05/20 04:26:29;;;;;;;;;;;11.00;99.90;;;;;;5103986;28;19924;-83
2023/05/20 04:28:57;;;;;;;;;;;11.10;99.90;;;;;;5105685;27;20045;-84
2023/05/20 04:31:25;;;;;;;;;;;11.10;99.90;;;;;;5107687;27;19931;-83
2023/05/20 04:33:54;;;;;;;;;;;11.10;99.90;;;;;;5106321;27;20030;-83
2023/05/20 04:36:20;;;;;;;;;;;11.20;99.90;;;;;;5105160;27;19976;-84
2023/05/20 04:38:47;;;;;;;;;;;11.10;99.90;;;;;;5106547;27;19927;-85
2023/05/20 04:41:12;;;;;;;;;;;11.30;99.90;;;;;;5104494;27;19931;-84
2023/05/20 04:43:38;;;;;;;;;;;11.90;99.90;;;;;;5106113;27;20323;-84
2023/05/20 04:46:04;;;;;;;;;;;13.20;99.90;;;;;;5102286;27;20359;-84
2023/05/20 04:48:31;;;;;;;;;;;13.00;99.90;;;;;;5103716;27;19928;-83
2023/05/20 04:50:56;;;;;;;;;;;14.80;99.90;;;;;;5104450;27;20022;-85
2023/05/20 04:53:22;;;;;;;;;;;15.90;99.90;;;;;;5107652;27;20022;-83
2023/05/20 04:55:48;;;;;;;;;;;16.70;99.90;;;;;;5085587;27;19934;-85
2023/05/20 04:58:16;;;;;;;;;;;17.30;99.90;;;;;;5106397;27;19932;-84
2023/05/20 05:00:42;;;;;;;;;;;17.70;99.90;;;;;;5104237;27;20312;-84
2023/05/20 05:03:07;;;;;;;;;;;18.10;99.90;;;;;;5105503;27;19927;-85
2023/05/20 05:05:34;;;;;;;;;;;18.80;99.90;;;;;;5105140;27;19928;-85
2023/05/20 05:08:00;;;;;;;;;;;19.70;99.90;;;;;;5105590;27;19927;-85
2023/05/20 05:10:25;;;;;;;;;;;20.00;99.90;;;;;;5107158;27;20437;-85
2023/05/20 05:12:51;;;;;;;;;;;20.00;99.90;;;;;;5106006;27;20324;-86
2023/05/20 05:15:16;;;;;;;;;;;18.70;99.90;;;;;;5086447;27;19923;-85
2023/05/20 05:17:42;;;;;;;;;;;20.00;99.90;;;;;;5106092;27;20711;-86
2023/05/20 05:20:08;;;;;;;;;;;20.10;99.90;;;;;;5105326;27;19949;-85
2023/05/20 05:22:35;;;;;;;;;;;20.70;99.90;;;;;;5090806;27;19983;-83
2023/05/20 05:25:02;;;;;;;;;;;21.10;99.90;;;;;;5105391;27;19927;-83
2023/05/20 05:27:27;;;;;;;;;;;20.50;99.90;;;;;;5104250;27;20030;-84
2023/05/20 05:29:53;;;;;;;;;;;20.30;99.90;;;;;;5106404;27;19931;-84
2023/05/20 05:32:18;;;;;;;;;;;20.10;99.90;;;;;;5102620;27;20011;-84
2023/05/20 05:34:44;;;;;;;;;;;20.60;99.90;;;;;;5099739;27;20405;-84
2023/05/20 05:37:09;;;;;;;;;;;20.00;99.90;;;;;;5106099;27;19928;-84
2023/05/20 05:39:36;;;;;;;;;;;20.00;99.90;;;;;;5106654;27;19924;-84
2023/05/20 05:42:02;;;;;;;;;;;20.50;99.90;;;;;;5106676;27;19984;-84
2023/05/20 05:44:28;;;;;;;;;;;20.20;99.90;;;;;;5105840;27;19927;-84
2023/05/20 05:46:53;;;;;;;;;;;17.50;99.90;;;;;;5104182;27;19934;-85
2023/05/20 05:49:19;;;;;;;;;;;17.30;99.90;;;;;;5105268;27;19930;-84
2023/05/20 05:51:44;;;;;;;;;;;16.80;99.90;;;;;;5107220;27;19932;-87
2023/05/20 05:54:10;;;;;;;;;;;15.90;99.90;;;;;;5103287;27;20364;-85
2023/05/20 05:56:36;;;;;;;;;;;16.00;99.90;;;;;;5083831;27;20561;-85
2023/05/20 05:59:01;;;;;;;;;;;16.00;99.90;;;;;;5102105;27;20012;-86
2023/05/20 06:01:27;;;;;;;;;;;15.80;99.90;;;;;;5105132;27;19985;-85
2023/05/20 06:03:52;;;;;;;;;;;16.40;99.90;;;;;;5086867;27;19934;-87
2023/05/20 06:06:18;;;;;;;;;;;16.70;99.90;;;;;;5102182;27;19987;-89
2023/05/20 06:08:44;;;;;;;;;;;15.70;99.90;;;;;;5106193;27;19959;-85
2023/05/20 06:11:09;;;;;;;;;;;16.00;99.90;;;;;;5107727;27;19927;-86
2023/05/20 06:13:35;;;;;;;;;;;15.80;99.90;;;;;;5102677;27;19931;-86
2023/05/20 06:16:00;;;;;;;;;;;16.10;99.90;;;;;;5104986;27;19928;-88
2023/05/20 06:18:26;;;;;;;;;;;16.50;99.90;;;;;;5105619;27;19927;-85
2023/05/20 06:20:58;;;;;;;;;;;16.40;99.90;;;;;;5089183;27;19923;-86
2023/05/20 06:23:24;;;;;;;;;;;16.60;99.90;;;;;;5085389;27;19928;-86
2023/05/20 06:25:50;;;;;;;;;;;16.30;99.90;;;;;;5106531;27;19923;-87
2023/05/20 06:28:16;;;;;;;;;;;15.90;99.90;;;;;;5106474;28;19939;-85
2023/05/20 06:30:41;;;;;;;;;;;16.10;99.90;;;;;;5103061;27;20432;-87
2023/05/20 06:33:07;;;;;;;;;;;16.30;99.90;;;;;;5105325;28;19934;-85
2023/05/20 06:35:35;;;;;;;;;;;16.30;99.90;;;;;;5101149;28;19931;-85
2023/05/20 06:38:01;;;;;;;;;;;17.00;99.90;;;;;;5104781;27;19930;-89
2023/05/20 06:40:27;;;;;;;;;;;17.40;99.90;;;;;;5087570;28;20330;-86
2023/05/20 06:42:52;;;;;;;;;;;16.70;99.90;;;;;;5086518;28;21630;-88
2023/05/20 06:45:18;;;;;;;;;;;17.00;99.90;;;;;;5121965;27;19927;-84
2023/05/20 06:47:44;;;;;;;;;;;17.60;99.90;;;;;;5103245;28;19931;-85
2023/05/20 06:50:10;;;;;;;;;;;17.40;99.90;;;;;;5102865;27;20011;-84
2023/05/20 06:52:36;;;;;;;;;;;17.80;99.90;;;;;;5104727;27;19935;-87
2023/05/20 06:55:02;;;;;;;;;;;17.90;99.90;;;;;;5092068;27;20320;-86
2023/05/20 06:57:28;;;;;;;;;;;17.40;99.90;;;;;;5106127;27;19935;-85
2023/05/20 06:59:53;;;;;;;;;;;18.10;99.90;;;;;;5105756;27;19934;-85
2023/05/20 07:02:20;;;;;;;;;;;17.70;99.90;;;;;;5104441;27;20002;-84
2023/05/20 07:04:45;;;;;;;;;;;18.20;99.90;;;;;;5110032;27;19935;-87
2023/05/20 07:07:11;;;;;;;;;;;18.60;99.90;;;;;;5106855;27;19927;-85
2023/05/20 07:09:36;;;;;;;;;;;18.80;99.90;;;;;;5109535;27;19942;-84
2023/05/20 07:12:02;;;;;;;;;;;18.00;99.90;;;;;;5108199;27;19927;-86
2023/05/20 07:14:28;;;;;;;;;;;18.00;99.90;;;;;;5105834;27;19938;-86
2023/05/20 07:16:53;;;;;;;;;;;17.80;99.90;;;;;;5099926;27;20084;-86
2023/05/20 07:19:19;;;;;;;;;;;18.20;99.90;;;;;;5099948;27;19980;-88
2023/05/20 07:21:48;;;;;;;;;;;18.00;99.90;;;;;;5107335;27;20072;-87
2023/05/20 07:24:14;;;;;;;;;;;17.80;99.90;;;;;;5107116;27;20000;-89
2023/05/20 07:26:40;;;;;;;;;;;18.20;99.90;;;;;;5106217;27;19935;-87
2023/05/20 07:29:06;;;;;;;;;;;18.20;99.90;;;;;;5108341;27;19927;-86
2023/05/20 07:31:31;;;;;;;;;;;18.60;99.90;;;;;;5108081;27;19923;-92
2023/05/20 07:34:00;;;;;;;;;;;18.60;99.90;;;;;;5110747;27;19923;-95
2023/05/20 07:36:26;;;;;;;;;;;18.10;99.90;;;;;;5109391;27;20469;-88
2023/05/20 07:38:52;;;;;;;;;;;17.90;99.90;;;;;;5109432;27;19976;-89
2023/05/20 07:41:18;;;;;;;;;;;17.80;99.90;;;;;;5091619;27;19927;-89
2023/05/20 07:43:44;;;;;;;;;;;17.30;99.90;;;;;;5092177;27;20002;-87
2023/05/20 07:46:10;;;;;;;;;;;17.90;99.90;;;;;;5106389;27;19931;-89
2023/05/20 07:48:35;;;;;;;;;;;18.50;99.90;;;;;;5090293;27;19934;-88
2023/05/20 07:51:01;;;;;;;;;;;18.00;99.90;;;;;;5105388;27;19939;-83
2023/05/20 07:53:27;;;;;;;;;;;17.90;99.90;;;;;;5108383;27;19934;-89
2023/05/20 07:55:52;;;;;;;;;;;18.70;99.90;;;;;;5109643;27;19932;-87
2023/05/20 07:58:18;;;;;;;;;;;18.80;99.90;;;;;;5086284;27;19931;-90
2023/05/20 08:00:43;;;;;;;;;;;18.40;99.90;;;;;;5091127;27;19966;-86
2023/05/20 08:03:10;;;;;;;;;;;18.30;99.90;;;;;;5107977;27;20554;-88
2023/05/20 08:05:37;;;;;;;;;;;18.90;99.90;;;;;;5103292;27;19927;-92
2023/05/20 08:08:02;;;;;;;;;;;19.10;99.90;;;;;;5085069;27;19924;-89
2023/05/20 08:10:28;;;;;;;;;;;19.00;99.90;;;;;;5102211;27;19969;-88
2023/05/20 08:12:53;;;;;;;;;;;19.00;99.90;;;;;;5094243;27;20681;-87
2023/05/20 08:15:19;;;;;;;;;;;19.20;99.90;;;;;;5087484;27;19924;-90
2023/05/20 08:17:47;;;;;;;;;;;19.20;99.90;;;;;;5107526;27;19931;-90
2023/05/20 08:20:13;;;;;;;;;;;18.90;99.90;;;;;;5103689;27;19931;-88
2023/05/20 08:22:39;;;;;;;;;;;19.10;99.90;;;;;;5085101;27;19980;-88
2023/05/20 08:25:25;;;;;;;;;;;19.60;99.90;;;;;;5107327;27;19953;-90
2023/05/20 08:27:54;;;;;;;;;;;19.20;99.90;;;;;;5106209;27;20018;-87
2023/05/20 08:30:20;;;;;;;;;;;18.70;99.90;;;;;;5121498;27;19931;-91
2023/05/20 08:32:47;;;;;;;;;;;19.20;99.90;;;;;;5103705;27;19927;-89
2023/05/20 08:35:13;;;;;;;;;;;19.50;99.90;;;;;;5105327;27;19931;-86
2023/05/20 08:37:38;;;;;;;;;;;19.50;99.90;;;;;;5098567;27;20410;-90
2023/05/20 08:40:04;;;;;;;;;;;19.10;99.90;;;;;;5088221;27;20475;-90
2023/05/20 08:42:30;;;;;;;;;;;19.50;99.90;;;;;;5106922;27;19931;-84
2023/05/20 08:44:56;;;;;;;;;;;19.70;99.90;;;;;;5089295;27;20019;-86
2023/05/20 08:47:22;;;;;;;;;;;19.40;99.90;;;;;;5090266;27;20042;-89
2023/05/20 08:49:48;;;;;;;;;;;19.70;99.90;;;;;;5104821;27;19934;-86
2023/05/20 08:52:15;;;;;;;;;;;19.60;99.90;;;;;;5104300;27;19980;-83
2023/05/20 08:54:44;;;;;;;;;;;20.20;99.90;;;;;;5104267;27;19934;-88
2023/05/20 08:57:12;;;;;;;;;;;19.90;99.90;;;;;;5085435;27;19924;-87
2023/05/20 08:59:40;;;;;;;;;;;19.20;99.90;;;;;;5100737;27;20688;-87
2023/05/20 09:02:06;;;;;;;;;;;19.10;99.90;;;;;;5105928;27;19935;-88
2023/05/20 09:04:31;;;;;;;;;;;19.00;99.90;;;;;;5086458;27;19927;-82
2023/05/20 09:06:57;;;;;;;;;;;19.50;99.90;;;;;;5084281;27;20384;-85
2023/05/20 09:09:22;;;;;;;;;;;18.30;99.90;;;;;;5104308;27;19939;-87
2023/05/20 09:11:48;;;;;;;;;;;18.70;99.90;;;;;;5104319;27;19927;-79
2023/05/20 09:14:13;;;;;;;;;;;19.20;99.90;;;;;;5101059;27;19927;-84
2023/05/20 09:16:39;;;;;;;;;;;19.20;99.90;;;;;;5106504;27;19935;-81
2023/05/20 09:19:06;;;;;;;;;;;19.10;99.90;;;;;;5102715;27;19932;-80
2023/05/20 09:21:31;;;;;;;;;;;18.40;99.90;;;;;;5123332;27;20360;-84
2023/05/20 09:24:00;;;;;;;;;;;18.60;99.90;;;;;;5102803;27;20018;-83
2023/05/20 09:26:27;;;;;;;;;;;18.80;99.90;;;;;;5105947;27;19933;-88
2023/05/20 09:28:55;;;;;;;;;;;18.70;99.90;;;;;;5108592;27;19978;-84
2023/05/20 09:31:21;;;;;;;;;;;18.90;99.90;;;;;;5104148;27;20410;-83
2023/05/20 09:33:48;;;;;;;;;;;18.50;99.90;;;;;;5107073;27;19927;-86
2023/05/20 09:36:14;;;;;;;;;;;18.50;99.90;;;;;;5102913;27;19975;-87
2023/05/20 09:38:40;;;;;;;;;;;18.40;99.90;;;;;;5104638;27;19967;-87
2023/05/20 09:41:07;;;;;;;;;;;18.40;99.90;;;;;;5106164;27;20517;-82
2023/05/20 09:43:33;;;;;;;;;;;19.10;99.90;;;;;;5103981;27;19928;-84
2023/05/20 09:46:00;;;;;;;;;;;19.70;99.90;;;;;;5103203;27;19960;-86
2023/05/20 09:48:26;;;;;;;;;;;19.90;99.90;;;;;;5103412;27;19936;-83
2023/05/20 09:50:53;;;;;;;;;;;20.20;99.90;;;;;;5088121;27;19927;-85
2023/05/20 09:53:19;;;;;;;;;;;20.30;99.90;;;;;;5105549;27;19934;-85
2023/05/20 09:55:45;;;;;;;;;;;19.90;99.90;;;;;;5104326;27;19923;-84
2023/05/20 09:58:11;;;;;;;;;;;20.00;99.90;;;;;;5106400;27;19924;-88
2023/05/20 10:00:37;;;;;;;;;;;19.90;99.90;;;;;;5103807;27;19931;-86
2023/05/20 10:03:03;;;;;;;;;;;20.10;99.90;;;;;;5101298;28;19931;-82
2023/05/20 10:05:30;;;;;;;;;;;20.10;99.80;;;;;;5104537;27;19923;-86
2023/05/20 10:08:10;;;;;;;;;;;20.70;99.90;;;;;;5104901;27;19931;-89
2023/05/20 10:10:55;;;;;;;;;;;19.90;99.90;;;;;;5081434;27;20346;-88
2023/05/20 10:13:30;;;;;;;;;;;19.90;99.90;;;;;;5102637;27;20285;-85
2023/05/20 10:15:59;;;;;;;;;;;20.80;99.90;;;;;;5101722;27;20072;-81
2023/05/20 10:18:33;;;;;;;;;;;19.60;98.50;;;;;;5101885;27;19932;-80
2023/05/20 10:20:59;;;;;;;;;;;19.20;98.90;;;;;;5100402;27;19977;-84
2023/05/20 10:23:28;;;;;;;;;;;19.30;99.90;;;;;;5098465;27;19959;-82
2023/05/20 10:25:55;;;;;;;;;;;19.80;99.90;;;;;;5099135;27;19927;-88
2023/05/20 10:28:31;;;;;;;;;;;19.60;98.60;;;;;;5099262;28;19932;-84
2023/05/20 10:30:57;;;;;;;;;;;19.70;99.40;;;;;;5101267;28;20651;-85
2023/05/20 10:33:24;;;;;;;;;;;19.40;99.10;;;;;;5100754;27;19938;-85
2023/05/20 10:35:51;;;;;;;;;;;19.80;99.90;;;;;;5102634;28;19930;-86
2023/05/20 10:38:16;;;;;;;;;;;19.80;99.30;;;;;;5101690;28;20377;-84
2023/05/20 10:40:42;;;;;;;;;;;19.50;99.90;;;;;;5098791;28;19954;-86
2023/05/20 10:43:25;;;;;;;;;;;19.70;99.30;;;;;;5103855;28;19996;-80
2023/05/20 10:45:52;;;;;;;;;;;19.50;99.40;;;;;;5080659;28;19923;-87
2023/05/20 10:48:25;;;;;;;;;;;19.20;99.90;;;;;;5101363;28;20416;-83
2023/05/20 10:50:53;;;;;;;;;;;18.80;99.80;;;;;;5102241;28;19930;-88
2023/05/20 10:53:20;;;;;;;;;;;18.90;99.90;;;;;;5084716;28;20073;-89
2023/05/20 10:55:50;;;;;;;;;;;19.00;99.90;;;;;;5101308;28;19927;-86
2023/05/20 10:58:16;;;;;;;;;;;19.50;99.90;;;;;;5099788;28;20010;-85
2023/05/20 11:00:42;;;;;;;;;;;19.00;99.90;;;;;;5099540;28;20062;-82
2023/05/20 11:03:08;;;;;;;;;;;19.90;99.90;;;;;;5102639;28;19928;-87
2023/05/20 11:05:34;;;;;;;;;;;21.10;99.90;;;;;;5099570;28;19973;-84
2023/05/20 11:08:00;;;;;;;;;;;20.20;99.90;;;;;;5100050;28;20328;-83
2023/05/20 11:10:26;;;;;;;;;;;19.40;99.90;;;;;;5099621;28;19927;-84
2023/05/20 11:12:52;;;;;;;;;;;19.20;99.20;;;;;;5117973;28;20296;-88
2023/05/20 11:15:18;;;;;;;;;;;20.10;99.90;;;;;;5098903;28;19923;-80
2023/05/20 11:17:58;;;;;;;;;;;20.10;99.90;;;;;;5101309;28;19951;-85
2023/05/20 11:20:24;;;;;;;;;;;20.30;99.90;;;;;;5097160;28;19981;-87
2023/05/20 11:22:50;;;;;;;;;;;19.80;99.90;;;;;;5096450;28;19934;-83
2023/05/20 11:25:17;;;;;;;;;;;20.50;99.90;;;;;;5103209;28;19924;-85
2023/05/20 11:27:43;;;;;;;;;;;20.70;99.20;;;;;;5099202;28;19935;-86
2023/05/20 11:30:09;;;;;;;;;;;20.10;99.10;;;;;;5100266;27;19969;-90
2023/05/20 11:32:36;;;;;;;;;;;20.00;99.90;;;;;;5084784;28;19932;-88
2023/05/20 11:35:01;;;;;;;;;;;20.60;99.90;;;;;;5097190;28;19927;-83
2023/05/20 11:37:27;;;;;;;;;;;20.40;99.70;;;;;;5103557;27;19950;-81
2023/05/20 11:40:06;;;;;;;;;;;20.20;99.00;;;;;;5121363;27;19953;-81
2023/05/20 11:42:32;;;;;;;;;;;19.70;96.20;;;;;;5099813;27;19927;-82
2023/05/20 11:45:01;;;;;;;;;;;20.70;99.90;;;;;;5122407;27;19939;-86
2023/05/20 11:47:26;;;;;;;;;;;21.10;99.20;;;;;;5087105;27;19923;-83
2023/05/20 11:49:52;;;;;;;;;;;19.90;97.20;;;;;;5106482;27;19927;-89
2023/05/20 11:52:17;;;;;;;;;;;19.10;98.10;;;;;;5099998;27;19928;-83
2023/05/20 11:54:43;;;;;;;;;;;19.70;98.20;;;;;;5107450;27;19937;-87
2023/05/20 11:57:10;;;;;;;;;;;20.80;99.90;;;;;;5098375;27;19931;-87
2023/05/20 11:59:35;;;;;;;;;;;20.80;99.20;;;;;;5098243;27;20050;-87
2023/05/20 12:02:01;;;;;;;;;;;20.80;98.30;;;;;;5102706;27;20022;-85
2023/05/20 12:04:27;;;;;;;;;;;20.80;96.40;;;;;;5100983;27;19924;-88
2023/05/20 12:06:52;;;;;;;;;;;21.30;99.90;;;;;;5103553;27;19966;-86
2023/05/20 12:09:18;;;;;;;;;;;21.30;97.50;;;;;;5105483;27;19934;-88
2023/05/20 12:11:44;;;;;;;;;;;20.40;96.40;;;;;;5086354;27;19980;-86
2023/05/20 12:14:10;;;;;;;;;;;19.60;98.50;;;;;;5084310;27;19927;-85
2023/05/20 12:16:36;;;;;;;;;;;20.00;98.90;;;;;;5083847;27;20433;-86
2023/05/20 12:19:02;;;;;;;;;;;20.40;99.90;;;;;;5102431;27;19982;-87
2023/05/20 12:21:28;;;;;;;;;;;19.70;98.50;;;;;;5103108;27;19967;-82
2023/05/20 12:23:56;;;;;;;;;;;19.30;99.60;;;;;;5102773;27;19939;-83
2023/05/20 12:26:28;;;;;;;;;;;19.70;99.20;;;;;;5102519;27;19930;-85
2023/05/20 12:28:55;;;;;;;;;;;20.00;97.10;;;;;;5103204;27;19934;-88
2023/05/20 12:31:20;;;;;;;;;;;20.70;97.70;;;;;;5089684;27;19923;-83
2023/05/20 12:33:46;;;;;;;;;;;20.30;96.00;;;;;;5107146;27;19981;-89
2023/05/20 12:36:11;;;;;;;;;;;20.10;98.10;;;;;;5088753;27;20030;-83
2023/05/20 12:38:37;;;;;;;;;;;20.10;98.60;;;;;;5126127;27;20340;-85
2023/05/20 12:41:03;;;;;;;;;;;19.50;96.20;;;;;;5086327;27;19999;-82
2023/05/20 12:43:28;;;;;;;;;;;19.10;97.00;;;;;;5122771;27;19924;-85
2023/05/20 12:45:54;;;;;;;;;;;19.00;98.30;;;;;;5108205;27;19938;-83
2023/05/20 12:48:20;;;;;;;;;;;19.80;98.60;;;;;;5107069;27;19928;-85
2023/05/20 12:50:45;;;;;;;;;;;19.80;99.40;;;;;;5108974;27;19984;-86
2023/05/20 12:53:11;;;;;;;;;;;19.80;99.90;;;;;;5106119;27;19998;-92
2023/05/20 12:55:37;;;;;;;;;;;19.70;96.90;;;;;;5092940;27;19932;-89
2023/05/20 12:58:03;;;;;;;;;;;19.60;96.90;;;;;;5105928;27;19984;-90
2023/05/20 13:00:28;;;;;;;;;;;19.80;97.50;;;;;;5088454;27;20441;-80
2023/05/20 13:02:54;;;;;;;;;;;20.20;96.20;;;;;;5126102;27;20330;-85
2023/05/20 13:05:19;;;;;;;;;;;20.30;96.00;;;;;;5107208;27;20022;-86
2023/05/20 13:07:45;;;;;;;;;;;20.70;99.90;;;;;;5105217;27;20393;-85
2023/05/20 13:10:11;;;;;;;;;;;20.50;95.50;;;;;;5088436;27;20298;-84
2023/05/20 13:12:37;;;;;;;;;;;20.10;97.00;;;;;;5083887;27;19927;-85
2023/05/20 13:15:03;;;;;;;;;;;19.70;97.40;;;;;;5105820;27;19931;-81
2023/05/20 13:17:29;;;;;;;;;;;19.90;97.00;;;;;;5087946;27;19927;-85
2023/05/20 13:19:55;;;;;;;;;;;20.40;96.50;;;;;;5104119;27;19938;-88
2023/05/20 13:22:20;;;;;;;;;;;21.00;97.40;;;;;;5108369;27;19923;-88
2023/05/20 13:24:46;;;;;;;;;;;20.80;96.80;;;;;;5087328;27;19928;-89
2023/05/20 13:27:11;;;;;;;;;;;20.30;98.70;;;;;;5086980;27;19931;-88
2023/05/20 13:29:37;;;;;;;;;;;20.20;96.70;;;;;;5106870;27;20015;-87
2023/05/20 13:32:03;;;;;;;;;;;21.90;99.80;;;;;;5086955;27;20002;-86
2023/05/20 13:34:29;;;;;;;;;;;21.70;98.40;;;;;;5085356;28;20285;-85
2023/05/20 13:36:54;;;;;;;;;;;21.10;96.50;;;;;;5100323;27;19929;-90
2023/05/20 13:39:20;;;;;;;;;;;21.00;96.50;;;;;;5090555;27;19935;-86
2023/05/20 13:41:45;;;;;;;;;;;20.50;95.30;;;;;;5106402;27;19927;-88
2023/05/20 13:44:11;;;;;;;;;;;20.60;98.10;;;;;;5101864;27;19931;-90
2023/05/20 13:46:37;;;;;;;;;;;20.60;98.20;;;;;;5091540;27;20011;-86
2023/05/20 13:49:02;;;;;;;;;;;20.20;95.60;;;;;;5104738;27;20028;-86
2023/05/20 13:51:29;;;;;;;;;;;20.00;96.70;;;;;;5088289;27;19927;-90
2023/05/20 13:53:55;;;;;;;;;;;19.80;96.50;;;;;;5090659;27;20516;-88
2023/05/20 13:56:20;;;;;;;;;;;19.60;97.90;;;;;;5105127;27;19923;-87
2023/05/20 13:58:46;;;;;;;;;;;19.50;97.60;;;;;;5104952;27;20018;-87
2023/05/20 14:01:12;;;;;;;;;;;19.60;97.80;;;;;;5106101;27;19986;-85
2023/05/20 14:03:39;;;;;;;;;;;19.40;96.30;;;;;;5105392;27;20022;-86
2023/05/20 14:06:05;;;;;;;;;;;19.40;95.80;;;;;;5104446;27;20284;-87
2023/05/20 14:08:30;;;;;;;;;;;19.90;96.70;;;;;;5104924;27;19927;-86
2023/05/20 14:10:56;;;;;;;;;;;19.80;98.30;;;;;;5104919;27;20432;-83